Share

Rome, OR

Mountain Home Air Force Base (KMUO) Elev 2995 ft | 43.04 °N, 115.87 °W | Change Station

Current weather conditions updated 23 minutes ago

Clear
Clear
64 °F
Feels Like 64 °F
N
18
Wind Variable Wind from NNW
Gusts 23 mph
Sunrise 7:00 AM
Sunset 8:37 PM
Moon Waning Gibbous

Tomorrow is forecast to be Much Warmer than today.

Pressure 30.21 in
Visibility 10.0 miles
Clouds Clear
Dew Point 14 °F
Humidity 14%
Rainfall 0.00 in
Snow Depth Not available.
UV 7 out of 16
Pollen 9.20 out of 12
Air Quality Not available.
Flu Activity Sporadic
SPECI KMUO 202201Z AUTO 33016G20KT 10SM CLR 18/M10 A3021 RMK AO2 WSHFT 2159

More Conditions Fewer Conditions

Pressure 30.21 in
Visibility 10.0 miles
Clouds Clear
Dew Point 14 °F
Humidity 14%
Rainfall 0.00 in
Snow Depth Not available.
UV 7 out of 16
Pollen 9.20 out of 12
Air Quality Not available.
Flu Activity Sporadic
SPECI KMUO 202201Z AUTO 33016G20KT 10SM CLR 18/M10 A3021 RMK AO2 WSHFT 2159

More Conditions Fewer Conditions

10-Day Weather Forecast

Almanac

Astronomy

Apr. 20, 2014 Rise Set
Actual Time 7:00 AM MDT 8:37 PM MDT
Civil Twilight 6:30 AM MDT 9:07 PM MDT
Nautical Twilight 5:54 AM MDT 9:43 PM MDT
Astronomical Twilight 5:15 AM MDT 10:22 PM MDT
Moon 1:24 AM MDT 11:23 AM MDT
Length of Visible Light 14h 37m
Length of Day
13h 37m
Tomorrow will be 2m 42s longer.
Waning Gibbous, 66% of the Moon is Illuminated
Today
Waning Gibbous
Apr 22
Last Quarter
Apr 29
New
May 6
First Quarter
May 14
Full

Today's Extremes

State Highs State Lows

Community

  • spring skiing mount Baker WA
    spring skiing mount Baker WA
  • Morning Sun
    Morning Sun
  • after rain
    after rain
  • Columbine
    Columbine
  • Easter Sunrise
    Easter Sunrise

WunderPhotos

Upload Photos

1,703,414 photos uploaded!

WunderBlogs® & News

Nearby

Snow Depth

Station Depth Elevation
Fish Creek 47 in 7900 ft
Rock Springs 0 in 5550 ft
Blue Mountain Spring 12 in 5900 ft
Snow Mountain 10 in 6220 ft
Tipton 8 in 5150 ft

Coastal Water Temperatures

Place Temperature
No Stations Reporting

Earthquake Activity

City Distance Mag. Time & Date
No recent earthquake activity has been reported nearby.
Minimum magnitude displayed is 2.5.

Nearby Weather Stations

Station Location Temp. Dew Point Humidity Wind Precip. Elev Updated Type
RAWS GRASSY MOUNTAIN OR, Jordan Valley, OR 58 °F 16 °F 19% NNW  at  4 mph 0.00 in / hr 4560 ft 3:24 PM MDT MADIS

Show More Stations Show Fewer Stations

What do you think?

We're not finished. Please let us know what you like, what you don't like, and what you are still missing.